sensor_id;sensor_type;location;lat;lon;timestamp;P1;durP1;ratioP1;P2;durP2;ratioP2
6850;SDS011;3464;42.728;23.296;2023-05-01T00:00:28;14.30;;;7.77;;
6850;SDS011;3464;42.728;23.296;2023-05-01T00:02:55;14.07;;;8.00;;
6850;SDS011;3464;42.728;23.296;2023-05-01T00:05:24;21.60;;;10.60;;
6850;SDS011;3464;42.728;23.296;2023-05-01T00:07:52;19.33;;;10.33;;
6850;SDS011;3464;42.728;23.296;2023-05-01T00:10:20;18.77;;;10.63;;
6850;SDS011;3464;42.728;23.296;2023-05-01T00:12:48;20.47;;;10.73;;
6850;SDS011;3464;42.728;23.296;2023-05-01T00:15:16;18.23;;;10.20;;
6850;SDS011;3464;42.728;23.296;2023-05-01T00:17:43;16.40;;;9.03;;
6850;SDS011;3464;42.728;23.296;2023-05-01T00:20:11;16.00;;;8.53;;
6850;SDS011;3464;42.728;23.296;2023-05-01T00:22:40;20.30;;;9.40;;
6850;SDS011;3464;42.728;23.296;2023-05-01T00:25:08;15.40;;;8.40;;
6850;SDS011;3464;42.728;23.296;2023-05-01T00:27:39;16.03;;;8.40;;
6850;SDS011;3464;42.728;23.296;2023-05-01T00:30:06;15.60;;;8.73;;
6850;SDS011;3464;42.728;23.296;2023-05-01T00:32:34;15.33;;;8.93;;
6850;SDS011;3464;42.728;23.296;2023-05-01T00:35:00;16.27;;;8.23;;
6850;SDS011;3464;42.728;23.296;2023-05-01T00:37:27;15.63;;;7.87;;
6850;SDS011;3464;42.728;23.296;2023-05-01T00:39:54;15.80;;;8.63;;
6850;SDS011;3464;42.728;23.296;2023-05-01T00:42:23;15.13;;;9.00;;
6850;SDS011;3464;42.728;23.296;2023-05-01T00:44:51;15.33;;;8.67;;
6850;SDS011;3464;42.728;23.296;2023-05-01T00:47:18;22.93;;;9.20;;
6850;SDS011;3464;42.728;23.296;2023-05-01T00:49:45;16.40;;;8.80;;
6850;SDS011;3464;42.728;23.296;2023-05-01T00:52:11;16.97;;;8.60;;
6850;SDS011;3464;42.728;23.296;2023-05-01T00:54:39;21.03;;;9.03;;
6850;SDS011;3464;42.728;23.296;2023-05-01T00:57:07;15.17;;;8.80;;
6850;SDS011;3464;42.728;23.296;2023-05-01T00:59:34;16.77;;;9.70;;
6850;SDS011;3464;42.728;23.296;2023-05-01T01:02:00;17.80;;;9.93;;
6850;SDS011;3464;42.728;23.296;2023-05-01T01:04:27;16.73;;;10.43;;
6850;SDS011;3464;42.728;23.296;2023-05-01T01:07:00;17.60;;;10.60;;
6850;SDS011;3464;42.728;23.296;2023-05-01T01:09:28;17.53;;;10.20;;
6850;SDS011;3464;42.728;23.296;2023-05-01T01:11:59;16.73;;;9.50;;
6850;SDS011;3464;42.728;23.296;2023-05-01T01:14:34;18.07;;;10.70;;
6850;SDS011;3464;42.728;23.296;2023-05-01T01:17:09;18.30;;;9.80;;
6850;SDS011;3464;42.728;23.296;2023-05-01T01:19:47;17.33;;;10.27;;
6850;SDS011;3464;42.728;23.296;2023-05-01T01:22:14;16.93;;;9.83;;
6850;SDS011;3464;42.728;23.296;2023-05-01T01:31:07;18.73;;;11.70;;
6850;SDS011;3464;42.728;23.296;2023-05-01T01:33:23;23.07;;;11.50;;
6850;SDS011;3464;42.728;23.296;2023-05-01T01:35:52;18.80;;;11.10;;
6850;SDS011;3464;42.728;23.296;2023-05-01T01:38:24;19.33;;;11.30;;
6850;SDS011;3464;42.728;23.296;2023-05-01T01:40:54;23.63;;;11.10;;
6850;SDS011;3464;42.728;23.296;2023-05-01T01:43:22;21.97;;;11.90;;
6850;SDS011;3464;42.728;23.296;2023-05-01T01:45:51;20.07;;;12.00;;
6850;SDS011;3464;42.728;23.296;2023-05-01T01:48:16;22.10;;;12.83;;
6850;SDS011;3464;42.728;23.296;2023-05-01T01:50:44;22.03;;;12.47;;
6850;SDS011;3464;42.728;23.296;2023-05-01T01:53:10;20.23;;;12.43;;
6850;SDS011;3464;42.728;23.296;2023-05-01T01:55:37;23.73;;;13.37;;
6850;SDS011;3464;42.728;23.296;2023-05-01T01:58:03;21.90;;;13.23;;
6850;SDS011;3464;42.728;23.296;2023-05-01T02:00:31;22.80;;;14.37;;
6850;SDS011;3464;42.728;23.296;2023-05-01T02:02:57;27.57;;;15.40;;
6850;SDS011;3464;42.728;23.296;2023-05-01T02:05:24;24.93;;;15.43;;
6850;SDS011;3464;42.728;23.296;2023-05-01T02:07:51;24.93;;;15.50;;
6850;SDS011;3464;42.728;23.296;2023-05-01T02:10:17;26.30;;;15.40;;
6850;SDS011;3464;42.728;23.296;2023-05-01T02:12:45;27.60;;;15.80;;
6850;SDS011;3464;42.728;23.296;2023-05-01T02:15:12;25.20;;;15.30;;
6850;SDS011;3464;42.728;23.296;2023-05-01T02:17:38;22.10;;;13.63;;
6850;SDS011;3464;42.728;23.296;2023-05-01T02:20:05;21.80;;;13.17;;
6850;SDS011;3464;42.728;23.296;2023-05-01T02:22:33;24.87;;;14.40;;
6850;SDS011;3464;42.728;23.296;2023-05-01T02:25:09;23.23;;;13.77;;
6850;SDS011;3464;42.728;23.296;2023-05-01T02:27:55;23.20;;;13.30;;
6850;SDS011;3464;42.728;23.296;2023-05-01T02:30:23;22.03;;;12.80;;
6850;SDS011;3464;42.728;23.296;2023-05-01T02:32:50;24.70;;;14.17;;
6850;SDS011;3464;42.728;23.296;2023-05-01T02:35:17;22.40;;;13.90;;
6850;SDS011;3464;42.728;23.296;2023-05-01T02:37:45;19.23;;;11.70;;
6850;SDS011;3464;42.728;23.296;2023-05-01T02:40:12;20.23;;;12.33;;
6850;SDS011;3464;42.728;23.296;2023-05-01T02:42:41;17.20;;;10.67;;
6850;SDS011;3464;42.728;23.296;2023-05-01T02:45:07;19.50;;;11.87;;
6850;SDS011;3464;42.728;23.296;2023-05-01T02:47:34;18.03;;;10.73;;
6850;SDS011;3464;42.728;23.296;2023-05-01T02:50:00;19.10;;;10.30;;
6850;SDS011;3464;42.728;23.296;2023-05-01T02:52:27;20.53;;;10.10;;
6850;SDS011;3464;42.728;23.296;2023-05-01T02:54:54;18.77;;;9.83;;
6850;SDS011;3464;42.728;23.296;2023-05-01T02:57:21;17.20;;;9.47;;
6850;SDS011;3464;42.728;23.296;2023-05-01T02:59:47;15.00;;;9.30;;
6850;SDS011;3464;42.728;23.296;2023-05-01T03:02:15;18.27;;;9.80;;
6850;SDS011;3464;42.728;23.296;2023-05-01T03:04:42;18.30;;;10.20;;
6850;SDS011;3464;42.728;23.296;2023-05-01T03:07:10;18.93;;;10.57;;
6850;SDS011;3464;42.728;23.296;2023-05-01T03:09:37;23.37;;;11.23;;
6850;SDS011;3464;42.728;23.296;2023-05-01T03:12:04;17.73;;;11.20;;
6850;SDS011;3464;42.728;23.296;2023-05-01T03:14:34;19.77;;;11.20;;
6850;SDS011;3464;42.728;23.296;2023-05-01T03:17:01;21.20;;;11.87;;
6850;SDS011;3464;42.728;23.296;2023-05-01T03:19:29;17.97;;;10.80;;
6850;SDS011;3464;42.728;23.296;2023-05-01T03:21:56;20.23;;;10.60;;
6850;SDS011;3464;42.728;23.296;2023-05-01T03:24:23;20.97;;;11.23;;
6850;SDS011;3464;42.728;23.296;2023-05-01T03:26:49;19.80;;;11.90;;
6850;SDS011;3464;42.728;23.296;2023-05-01T03:29:16;19.47;;;12.90;;
6850;SDS011;3464;42.728;23.296;2023-05-01T03:31:43;18.27;;;11.80;;
6850;SDS011;3464;42.728;23.296;2023-05-01T03:34:09;20.37;;;12.63;;
6850;SDS011;3464;42.728;23.296;2023-05-01T03:36:36;24.13;;;14.10;;
6850;SDS011;3464;42.728;23.296;2023-05-01T03:39:02;21.03;;;13.00;;
6850;SDS011;3464;42.728;23.296;2023-05-01T03:41:29;19.00;;;12.77;;
6850;SDS011;3464;42.728;23.296;2023-05-01T03:43:56;19.87;;;13.67;;
6850;SDS011;3464;42.728;23.296;2023-05-01T03:46:23;21.13;;;13.17;;
6850;SDS011;3464;42.728;23.296;2023-05-01T03:48:50;23.40;;;11.70;;
6850;SDS011;3464;42.728;23.296;2023-05-01T03:51:18;19.00;;;12.10;;
6850;SDS011;3464;42.728;23.296;2023-05-01T03:53:45;18.63;;;10.07;;
6850;SDS011;3464;42.728;23.296;2023-05-01T03:56:12;21.57;;;10.90;;
6850;SDS011;3464;42.728;23.296;2023-05-01T03:58:38;18.30;;;10.13;;
6850;SDS011;3464;42.728;23.296;2023-05-01T04:01:06;19.17;;;9.93;;
6850;SDS011;3464;42.728;23.296;2023-05-01T04:03:32;19.73;;;9.93;;
6850;SDS011;3464;42.728;23.296;2023-05-01T04:06:00;19.50;;;9.43;;
6850;SDS011;3464;42.728;23.296;2023-05-01T04:08:27;15.10;;;7.17;;
6850;SDS011;3464;42.728;23.296;2023-05-01T04:10:53;14.57;;;6.77;;
6850;SDS011;3464;42.728;23.296;2023-05-01T04:13:20;18.37;;;6.43;;
6850;SDS011;3464;42.728;23.296;2023-05-01T04:15:47;22.97;;;7.17;;
6850;SDS011;3464;42.728;23.296;2023-05-01T04:18:14;20.03;;;6.70;;
6850;SDS011;3464;42.728;23.296;2023-05-01T04:20:42;14.80;;;6.70;;
6850;SDS011;3464;42.728;23.296;2023-05-01T04:23:09;17.30;;;6.70;;
6850;SDS011;3464;42.728;23.296;2023-05-01T04:25:35;18.60;;;6.73;;
6850;SDS011;3464;42.728;23.296;2023-05-01T04:28:02;16.77;;;6.10;;
6850;SDS011;3464;42.728;23.296;2023-05-01T04:30:29;17.67;;;6.07;;
6850;SDS011;3464;42.728;23.296;2023-05-01T04:32:59;16.70;;;6.60;;
6850;SDS011;3464;42.728;23.296;2023-05-01T04:35:27;13.83;;;5.60;;
6850;SDS011;3464;42.728;23.296;2023-05-01T04:37:54;19.00;;;6.00;;
6850;SDS011;3464;42.728;23.296;2023-05-01T04:40:21;16.67;;;6.40;;
6850;SDS011;3464;42.728;23.296;2023-05-01T04:42:47;13.90;;;6.00;;
6850;SDS011;3464;42.728;23.296;2023-05-01T04:45:14;13.27;;;6.10;;
6850;SDS011;3464;42.728;23.296;2023-05-01T04:47:41;17.37;;;6.50;;
6850;SDS011;3464;42.728;23.296;2023-05-01T04:50:08;17.80;;;6.40;;
6850;SDS011;3464;42.728;23.296;2023-05-01T04:52:36;14.40;;;6.53;;
6850;SDS011;3464;42.728;23.296;2023-05-01T04:55:02;13.87;;;5.97;;
6850;SDS011;3464;42.728;23.296;2023-05-01T04:57:30;19.20;;;5.90;;
6850;SDS011;3464;42.728;23.296;2023-05-01T04:59:57;16.80;;;6.40;;
6850;SDS011;3464;42.728;23.296;2023-05-01T05:02:24;15.63;;;6.47;;
6850;SDS011;3464;42.728;23.296;2023-05-01T05:04:50;18.60;;;6.47;;
6850;SDS011;3464;42.728;23.296;2023-05-01T05:07:18;15.93;;;6.17;;
6850;SDS011;3464;42.728;23.296;2023-05-01T05:09:47;15.03;;;6.00;;
6850;SDS011;3464;42.728;23.296;2023-05-01T05:12:13;15.30;;;5.80;;
6850;SDS011;3464;42.728;23.296;2023-05-01T05:14:40;17.13;;;5.60;;
6850;SDS011;3464;42.728;23.296;2023-05-01T05:17:08;12.73;;;5.33;;
6850;SDS011;3464;42.728;23.296;2023-05-01T05:19:35;16.63;;;5.17;;
6850;SDS011;3464;42.728;23.296;2023-05-01T05:22:03;16.37;;;5.17;;
6850;SDS011;3464;42.728;23.296;2023-05-01T05:24:32;12.37;;;5.40;;
6850;SDS011;3464;42.728;23.296;2023-05-01T05:26:59;16.87;;;5.77;;
6850;SDS011;3464;42.728;23.296;2023-05-01T05:29:25;13.20;;;5.63;;
6850;SDS011;3464;42.728;23.296;2023-05-01T05:31:52;12.30;;;5.00;;
6850;SDS011;3464;42.728;23.296;2023-05-01T05:34:21;15.97;;;5.57;;
6850;SDS011;3464;42.728;23.296;2023-05-01T05:36:48;16.63;;;5.37;;
6850;SDS011;3464;42.728;23.296;2023-05-01T05:39:17;18.53;;;5.63;;
6850;SDS011;3464;42.728;23.296;2023-05-01T05:41:46;13.97;;;5.03;;
6850;SDS011;3464;42.728;23.296;2023-05-01T05:44:12;13.17;;;4.93;;
6850;SDS011;3464;42.728;23.296;2023-05-01T05:46:40;14.83;;;5.20;;
6850;SDS011;3464;42.728;23.296;2023-05-01T05:49:06;16.20;;;4.93;;
6850;SDS011;3464;42.728;23.296;2023-05-01T05:51:33;13.80;;;4.90;;
6850;SDS011;3464;42.728;23.296;2023-05-01T05:53:59;15.40;;;4.97;;
6850;SDS011;3464;42.728;23.296;2023-05-01T05:56:27;13.50;;;4.77;;
6850;SDS011;3464;42.728;23.296;2023-05-01T05:58:55;21.37;;;5.20;;
6850;SDS011;3464;42.728;23.296;2023-05-01T06:01:23;14.87;;;5.30;;
6850;SDS011;3464;42.728;23.296;2023-05-01T06:03:51;15.40;;;4.90;;
6850;SDS011;3464;42.728;23.296;2023-05-01T06:06:18;18.33;;;4.90;;
6850;SDS011;3464;42.728;23.296;2023-05-01T06:08:45;12.90;;;4.20;;
6850;SDS011;3464;42.728;23.296;2023-05-01T06:11:11;12.60;;;4.77;;
6850;SDS011;3464;42.728;23.296;2023-05-01T06:13:38;12.40;;;4.70;;
6850;SDS011;3464;42.728;23.296;2023-05-01T06:16:05;14.63;;;4.43;;
6850;SDS011;3464;42.728;23.296;2023-05-01T06:18:32;14.87;;;4.90;;
6850;SDS011;3464;42.728;23.296;2023-05-01T06:20:59;13.30;;;4.73;;
6850;SDS011;3464;42.728;23.296;2023-05-01T06:23:25;11.00;;;4.63;;
6850;SDS011;3464;42.728;23.296;2023-05-01T06:25:52;12.53;;;5.23;;
6850;SDS011;3464;42.728;23.296;2023-05-01T06:28:19;13.00;;;4.87;;
6850;SDS011;3464;42.728;23.296;2023-05-01T06:30:46;13.40;;;4.47;;
6850;SDS011;3464;42.728;23.296;2023-05-01T06:33:14;14.70;;;4.70;;
6850;SDS011;3464;42.728;23.296;2023-05-01T06:35:40;14.50;;;4.57;;
6850;SDS011;3464;42.728;23.296;2023-05-01T06:38:09;14.10;;;4.80;;
6850;SDS011;3464;42.728;23.296;2023-05-01T06:40:37;12.57;;;4.83;;
6850;SDS011;3464;42.728;23.296;2023-05-01T06:43:04;13.90;;;5.17;;
6850;SDS011;3464;42.728;23.296;2023-05-01T06:45:30;12.00;;;5.00;;
6850;SDS011;3464;42.728;23.296;2023-05-01T06:47:58;13.63;;;5.07;;
6850;SDS011;3464;42.728;23.296;2023-05-01T06:50:24;13.90;;;4.77;;
6850;SDS011;3464;42.728;23.296;2023-05-01T06:52:51;12.67;;;4.60;;
6850;SDS011;3464;42.728;23.296;2023-05-01T06:55:18;12.40;;;4.43;;
6850;SDS011;3464;42.728;23.296;2023-05-01T06:57:45;16.30;;;4.90;;
6850;SDS011;3464;42.728;23.296;2023-05-01T07:00:12;13.80;;;4.97;;
6850;SDS011;3464;42.728;23.296;2023-05-01T07:02:39;14.33;;;4.83;;
6850;SDS011;3464;42.728;23.296;2023-05-01T07:05:06;13.60;;;5.13;;
6850;SDS011;3464;42.728;23.296;2023-05-01T07:07:33;12.90;;;4.70;;
6850;SDS011;3464;42.728;23.296;2023-05-01T07:10:01;12.73;;;4.90;;
6850;SDS011;3464;42.728;23.296;2023-05-01T07:12:27;11.57;;;4.30;;
6850;SDS011;3464;42.728;23.296;2023-05-01T07:14:54;30.00;;;5.40;;
6850;SDS011;3464;42.728;23.296;2023-05-01T07:17:22;12.20;;;4.13;;
6850;SDS011;3464;42.728;23.296;2023-05-01T07:19:51;13.47;;;4.37;;
6850;SDS011;3464;42.728;23.296;2023-05-01T07:22:19;14.50;;;4.10;;
6850;SDS011;3464;42.728;23.296;2023-05-01T07:24:46;12.27;;;4.40;;
6850;SDS011;3464;42.728;23.296;2023-05-01T07:27:14;10.60;;;4.30;;
6850;SDS011;3464;42.728;23.296;2023-05-01T07:29:41;12.17;;;4.10;;
6850;SDS011;3464;42.728;23.296;2023-05-01T07:32:08;13.07;;;4.30;;
6850;SDS011;3464;42.728;23.296;2023-05-01T07:34:35;11.53;;;4.00;;
6850;SDS011;3464;42.728;23.296;2023-05-01T07:37:01;11.73;;;4.27;;
6850;SDS011;3464;42.728;23.296;2023-05-01T07:39:28;11.73;;;4.20;;
6850;SDS011;3464;42.728;23.296;2023-05-01T07:41:56;10.33;;;3.87;;
6850;SDS011;3464;42.728;23.296;2023-05-01T07:44:22;10.83;;;3.87;;
6850;SDS011;3464;42.728;23.296;2023-05-01T07:46:49;13.67;;;4.40;;
6850;SDS011;3464;42.728;23.296;2023-05-01T07:49:15;13.63;;;4.70;;
6850;SDS011;3464;42.728;23.296;2023-05-01T07:51:42;14.00;;;5.60;;
6850;SDS011;3464;42.728;23.296;2023-05-01T07:54:09;11.57;;;5.30;;
6850;SDS011;3464;42.728;23.296;2023-05-01T07:56:35;11.67;;;5.20;;
6850;SDS011;3464;42.728;23.296;2023-05-01T07:59:04;12.07;;;5.27;;
6850;SDS011;3464;42.728;23.296;2023-05-01T08:01:32;12.03;;;4.27;;
6850;SDS011;3464;42.728;23.296;2023-05-01T08:04:00;10.70;;;3.47;;
6850;SDS011;3464;42.728;23.296;2023-05-01T08:06:26;15.20;;;5.57;;
6850;SDS011;3464;42.728;23.296;2023-05-01T08:08:54;14.60;;;5.80;;
6850;SDS011;3464;42.728;23.296;2023-05-01T08:11:23;14.20;;;6.00;;
6850;SDS011;3464;42.728;23.296;2023-05-01T08:13:50;12.87;;;5.70;;
6850;SDS011;3464;42.728;23.296;2023-05-01T08:16:17;15.53;;;6.10;;
6850;SDS011;3464;42.728;23.296;2023-05-01T08:18:43;13.87;;;5.97;;
6850;SDS011;3464;42.728;23.296;2023-05-01T08:21:11;20.30;;;6.40;;
6850;SDS011;3464;42.728;23.296;2023-05-01T08:23:38;14.17;;;6.20;;
6850;SDS011;3464;42.728;23.296;2023-05-01T08:26:05;14.40;;;6.30;;
6850;SDS011;3464;42.728;23.296;2023-05-01T08:28:34;16.77;;;6.30;;
6850;SDS011;3464;42.728;23.296;2023-05-01T08:31:01;15.73;;;5.67;;
6850;SDS011;3464;42.728;23.296;2023-05-01T08:33:28;16.80;;;6.40;;
6850;SDS011;3464;42.728;23.296;2023-05-01T08:35:55;16.30;;;6.13;;
6850;SDS011;3464;42.728;23.296;2023-05-01T08:38:22;13.70;;;6.03;;
6850;SDS011;3464;42.728;23.296;2023-05-01T08:40:51;14.00;;;6.00;;
6850;SDS011;3464;42.728;23.296;2023-05-01T08:43:17;13.53;;;4.53;;
6850;SDS011;3464;42.728;23.296;2023-05-01T08:45:45;16.27;;;5.97;;
6850;SDS011;3464;42.728;23.296;2023-05-01T08:48:11;17.63;;;5.50;;
6850;SDS011;3464;42.728;23.296;2023-05-01T08:50:38;17.30;;;6.07;;
6850;SDS011;3464;42.728;23.296;2023-05-01T08:53:05;14.30;;;5.10;;
6850;SDS011;3464;42.728;23.296;2023-05-01T08:55:33;15.40;;;5.10;;
6850;SDS011;3464;42.728;23.296;2023-05-01T08:58:00;13.40;;;5.00;;
6850;SDS011;3464;42.728;23.296;2023-05-01T09:00:27;13.07;;;4.63;;
6850;SDS011;3464;42.728;23.296;2023-05-01T09:02:53;12.53;;;4.80;;
6850;SDS011;3464;42.728;23.296;2023-05-01T09:05:20;17.13;;;5.20;;
6850;SDS011;3464;42.728;23.296;2023-05-01T09:07:47;12.10;;;4.67;;
6850;SDS011;3464;42.728;23.296;2023-05-01T09:10:15;13.43;;;5.33;;
6850;SDS011;3464;42.728;23.296;2023-05-01T09:12:46;12.20;;;5.23;;
6850;SDS011;3464;42.728;23.296;2023-05-01T09:15:12;11.20;;;3.97;;
6850;SDS011;3464;42.728;23.296;2023-05-01T09:17:39;11.33;;;4.20;;
6850;SDS011;3464;42.728;23.296;2023-05-01T09:20:06;11.20;;;4.03;;
6850;SDS011;3464;42.728;23.296;2023-05-01T09:22:34;15.97;;;5.53;;
6850;SDS011;3464;42.728;23.296;2023-05-01T09:25:00;11.10;;;4.17;;
6850;SDS011;3464;42.728;23.296;2023-05-01T09:27:28;16.03;;;4.60;;
6850;SDS011;3464;42.728;23.296;2023-05-01T09:29:55;12.53;;;3.70;;
6850;SDS011;3464;42.728;23.296;2023-05-01T09:32:23;14.10;;;3.83;;
6850;SDS011;3464;42.728;23.296;2023-05-01T09:34:49;13.40;;;4.50;;
6850;SDS011;3464;42.728;23.296;2023-05-01T09:39:59;11.90;;;4.50;;
6850;SDS011;3464;42.728;23.296;2023-05-01T09:42:22;16.57;;;4.10;;
6850;SDS011;3464;42.728;23.296;2023-05-01T09:44:44;13.77;;;4.10;;
6850;SDS011;3464;42.728;23.296;2023-05-01T09:47:11;11.40;;;3.73;;
6850;SDS011;3464;42.728;23.296;2023-05-01T09:49:43;11.30;;;3.83;;
6850;SDS011;3464;42.728;23.296;2023-05-01T09:52:10;10.87;;;3.50;;
6850;SDS011;3464;42.728;23.296;2023-05-01T09:54:36;9.77;;;3.10;;
6850;SDS011;3464;42.728;23.296;2023-05-01T09:57:03;10.50;;;3.20;;
6850;SDS011;3464;42.728;23.296;2023-05-01T09:59:29;11.03;;;3.30;;
6850;SDS011;3464;42.728;23.296;2023-05-01T10:01:56;12.03;;;3.10;;
6850;SDS011;3464;42.728;23.296;2023-05-01T10:04:29;10.43;;;3.10;;
6850;SDS011;3464;42.728;23.296;2023-05-01T10:06:56;11.00;;;3.03;;
6850;SDS011;3464;42.728;23.296;2023-05-01T10:09:26;11.67;;;3.50;;
6850;SDS011;3464;42.728;23.296;2023-05-01T10:11:53;15.80;;;4.23;;
6850;SDS011;3464;42.728;23.296;2023-05-01T10:14:21;11.20;;;3.50;;
6850;SDS011;3464;42.728;23.296;2023-05-01T10:16:49;11.77;;;4.00;;
6850;SDS011;3464;42.728;23.296;2023-05-01T10:19:17;13.17;;;3.87;;
6850;SDS011;3464;42.728;23.296;2023-05-01T10:21:44;10.70;;;3.67;;
6850;SDS011;3464;42.728;23.296;2023-05-01T10:24:10;12.43;;;3.20;;
6850;SDS011;3464;42.728;23.296;2023-05-01T10:26:37;10.50;;;3.20;;
6850;SDS011;3464;42.728;23.296;2023-05-01T10:29:04;12.10;;;3.20;;
6850;SDS011;3464;42.728;23.296;2023-05-01T10:31:32;10.73;;;2.87;;
6850;SDS011;3464;42.728;23.296;2023-05-01T10:33:58;10.40;;;2.53;;
6850;SDS011;3464;42.728;23.296;2023-05-01T10:36:30;10.37;;;2.57;;
6850;SDS011;3464;42.728;23.296;2023-05-01T10:38:57;9.40;;;2.20;;
6850;SDS011;3464;42.728;23.296;2023-05-01T10:46:47;9.47;;;2.50;;
6850;SDS011;3464;42.728;23.296;2023-05-01T10:49:14;11.37;;;2.93;;
6850;SDS011;3464;42.728;23.296;2023-05-01T10:51:56;12.60;;;2.40;;
6850;SDS011;3464;42.728;23.296;2023-05-01T10:54:27;9.80;;;2.20;;
6850;SDS011;3464;42.728;23.296;2023-05-01T10:56:55;10.50;;;2.57;;
6850;SDS011;3464;42.728;23.296;2023-05-01T10:59:21;11.27;;;2.90;;
6850;SDS011;3464;42.728;23.296;2023-05-01T11:01:48;10.37;;;3.00;;
6850;SDS011;3464;42.728;23.296;2023-05-01T11:07:19;8.73;;;2.10;;
6850;SDS011;3464;42.728;23.296;2023-05-01T11:09:49;10.53;;;2.37;;
6850;SDS011;3464;42.728;23.296;2023-05-01T11:15:00;10.50;;;2.70;;
6850;SDS011;3464;42.728;23.296;2023-05-01T11:20:12;9.80;;;2.73;;
6850;SDS011;3464;42.728;23.296;2023-05-01T11:22:39;18.83;;;8.20;;
6850;SDS011;3464;42.728;23.296;2023-05-01T11:27:46;10.10;;;2.20;;
6850;SDS011;3464;42.728;23.296;2023-05-01T11:30:12;10.80;;;2.50;;
6850;SDS011;3464;42.728;23.296;2023-05-01T11:32:41;8.97;;;2.37;;
6850;SDS011;3464;42.728;23.296;2023-05-01T11:35:06;10.87;;;2.63;;
6850;SDS011;3464;42.728;23.296;2023-05-01T11:37:39;10.23;;;2.00;;
6850;SDS011;3464;42.728;23.296;2023-05-01T11:40:05;9.70;;;2.43;;
6850;SDS011;3464;42.728;23.296;2023-05-01T11:42:33;9.80;;;2.13;;
6850;SDS011;3464;42.728;23.296;2023-05-01T11:45:06;9.13;;;2.30;;
6850;SDS011;3464;42.728;23.296;2023-05-01T11:47:39;10.70;;;2.37;;
6850;SDS011;3464;42.728;23.296;2023-05-01T11:50:09;8.63;;;2.27;;
6850;SDS011;3464;42.728;23.296;2023-05-01T11:52:41;9.50;;;2.53;;
6850;SDS011;3464;42.728;23.296;2023-05-01T11:55:08;9.60;;;2.13;;
6850;SDS011;3464;42.728;23.296;2023-05-01T12:00:11;9.40;;;2.10;;
6850;SDS011;3464;42.728;23.296;2023-05-01T12:02:38;9.63;;;2.27;;
6850;SDS011;3464;42.728;23.296;2023-05-01T12:10:32;10.03;;;2.30;;
6850;SDS011;3464;42.728;23.296;2023-05-01T12:13:00;10.40;;;2.67;;
6850;SDS011;3464;42.728;23.296;2023-05-01T12:15:26;13.30;;;2.50;;
6850;SDS011;3464;42.728;23.296;2023-05-01T12:17:53;12.40;;;2.30;;
6850;SDS011;3464;42.728;23.296;2023-05-01T12:22:58;10.70;;;2.40;;
6850;SDS011;3464;42.728;23.296;2023-05-01T12:25:29;10.70;;;2.50;;
6850;SDS011;3464;42.728;23.296;2023-05-01T12:27:57;10.17;;;2.67;;
6850;SDS011;3464;42.728;23.296;2023-05-01T12:30:28;10.83;;;2.40;;
6850;SDS011;3464;42.728;23.296;2023-05-01T12:32:58;11.60;;;2.43;;
6850;SDS011;3464;42.728;23.296;2023-05-01T12:35:28;11.40;;;2.80;;
6850;SDS011;3464;42.728;23.296;2023-05-01T12:37:58;9.60;;;2.23;;
6850;SDS011;3464;42.728;23.296;2023-05-01T12:40:25;9.30;;;2.70;;
6850;SDS011;3464;42.728;23.296;2023-05-01T12:42:55;9.90;;;2.53;;
6850;SDS011;3464;42.728;23.296;2023-05-01T12:45:24;9.17;;;2.40;;
6850;SDS011;3464;42.728;23.296;2023-05-01T12:47:52;11.00;;;2.60;;
6850;SDS011;3464;42.728;23.296;2023-05-01T12:50:19;9.23;;;2.27;;
6850;SDS011;3464;42.728;23.296;2023-05-01T12:52:46;12.40;;;2.57;;
6850;SDS011;3464;42.728;23.296;2023-05-01T12:55:13;11.30;;;2.10;;
6850;SDS011;3464;42.728;23.296;2023-05-01T13:00:19;10.57;;;2.30;;
6850;SDS011;3464;42.728;23.296;2023-05-01T13:02:52;11.10;;;2.00;;
6850;SDS011;3464;42.728;23.296;2023-05-01T13:05:34;9.30;;;2.40;;
6850;SDS011;3464;42.728;23.296;2023-05-01T13:11:19;11.10;;;2.40;;
6850;SDS011;3464;42.728;23.296;2023-05-01T13:13:49;11.10;;;2.90;;
6850;SDS011;3464;42.728;23.296;2023-05-01T13:16:23;10.87;;;2.33;;
6850;SDS011;3464;42.728;23.296;2023-05-01T13:18:54;9.67;;;2.30;;
6850;SDS011;3464;42.728;23.296;2023-05-01T13:21:21;10.10;;;2.30;;
6850;SDS011;3464;42.728;23.296;2023-05-01T13:23:54;10.93;;;2.50;;
6850;SDS011;3464;42.728;23.296;2023-05-01T13:26:24;12.60;;;2.43;;
6850;SDS011;3464;42.728;23.296;2023-05-01T13:28:51;13.97;;;5.20;;
6850;SDS011;3464;42.728;23.296;2023-05-01T13:31:18;11.43;;;2.10;;
6850;SDS011;3464;42.728;23.296;2023-05-01T13:33:45;10.97;;;2.80;;
6850;SDS011;3464;42.728;23.296;2023-05-01T13:36:12;10.20;;;2.30;;
6850;SDS011;3464;42.728;23.296;2023-05-01T13:38:42;8.53;;;2.03;;
6850;SDS011;3464;42.728;23.296;2023-05-01T13:41:12;10.17;;;2.10;;
6850;SDS011;3464;42.728;23.296;2023-05-01T13:43:39;9.50;;;2.00;;
6850;SDS011;3464;42.728;23.296;2023-05-01T13:46:05;8.73;;;1.90;;
6850;SDS011;3464;42.728;23.296;2023-05-01T13:48:33;9.87;;;2.20;;
6850;SDS011;3464;42.728;23.296;2023-05-01T13:50:59;11.07;;;2.80;;
6850;SDS011;3464;42.728;23.296;2023-05-01T13:53:26;9.87;;;2.40;;
6850;SDS011;3464;42.728;23.296;2023-05-01T13:55:54;14.20;;;3.10;;
6850;SDS011;3464;42.728;23.296;2023-05-01T13:58:20;8.97;;;1.80;;
6850;SDS011;3464;42.728;23.296;2023-05-01T14:00:47;11.30;;;2.30;;
6850;SDS011;3464;42.728;23.296;2023-05-01T14:03:15;10.77;;;2.60;;
6850;SDS011;3464;42.728;23.296;2023-05-01T14:05:43;9.47;;;2.03;;
6850;SDS011;3464;42.728;23.296;2023-05-01T14:08:09;10.43;;;1.90;;
6850;SDS011;3464;42.728;23.296;2023-05-01T14:10:36;9.20;;;2.20;;
6850;SDS011;3464;42.728;23.296;2023-05-01T14:13:02;12.90;;;3.87;;
6850;SDS011;3464;42.728;23.296;2023-05-01T14:15:32;11.63;;;2.10;;
6850;SDS011;3464;42.728;23.296;2023-05-01T14:18:04;10.00;;;1.93;;
6850;SDS011;3464;42.728;23.296;2023-05-01T14:20:30;9.00;;;2.40;;
6850;SDS011;3464;42.728;23.296;2023-05-01T14:22:58;8.60;;;1.90;;
6850;SDS011;3464;42.728;23.296;2023-05-01T14:25:27;12.17;;;2.10;;
6850;SDS011;3464;42.728;23.296;2023-05-01T14:27:53;8.53;;;2.00;;
6850;SDS011;3464;42.728;23.296;2023-05-01T14:30:23;9.13;;;1.93;;
6850;SDS011;3464;42.728;23.296;2023-05-01T14:32:50;9.37;;;1.93;;
6850;SDS011;3464;42.728;23.296;2023-05-01T14:35:20;8.80;;;2.30;;
6850;SDS011;3464;42.728;23.296;2023-05-01T14:37:46;9.03;;;2.10;;
6850;SDS011;3464;42.728;23.296;2023-05-01T14:40:12;8.70;;;2.30;;
6850;SDS011;3464;42.728;23.296;2023-05-01T14:42:40;13.17;;;4.87;;
6850;SDS011;3464;42.728;23.296;2023-05-01T14:45:08;10.53;;;3.10;;
6850;SDS011;3464;42.728;23.296;2023-05-01T14:47:37;12.60;;;2.10;;
6850;SDS011;3464;42.728;23.296;2023-05-01T14:50:04;8.20;;;1.87;;
6850;SDS011;3464;42.728;23.296;2023-05-01T14:52:32;10.73;;;2.60;;
6850;SDS011;3464;42.728;23.296;2023-05-01T14:54:59;13.13;;;5.40;;
6850;SDS011;3464;42.728;23.296;2023-05-01T14:57:27;10.70;;;2.67;;
6850;SDS011;3464;42.728;23.296;2023-05-01T14:59:55;10.30;;;2.00;;
6850;SDS011;3464;42.728;23.296;2023-05-01T15:02:24;8.40;;;1.80;;
6850;SDS011;3464;42.728;23.296;2023-05-01T15:04:51;11.10;;;2.97;;
6850;SDS011;3464;42.728;23.296;2023-05-01T15:07:18;16.53;;;3.83;;
6850;SDS011;3464;42.728;23.296;2023-05-01T15:09:45;11.70;;;2.70;;
6850;SDS011;3464;42.728;23.296;2023-05-01T15:12:14;9.50;;;2.53;;
6850;SDS011;3464;42.728;23.296;2023-05-01T15:14:40;16.93;;;4.80;;
6850;SDS011;3464;42.728;23.296;2023-05-01T15:17:07;9.10;;;2.20;;
6850;SDS011;3464;42.728;23.296;2023-05-01T15:19:33;8.93;;;2.00;;
6850;SDS011;3464;42.728;23.296;2023-05-01T15:22:01;9.83;;;2.40;;
6850;SDS011;3464;42.728;23.296;2023-05-01T15:24:28;9.07;;;2.27;;
6850;SDS011;3464;42.728;23.296;2023-05-01T15:26:57;10.07;;;2.30;;
6850;SDS011;3464;42.728;23.296;2023-05-01T15:29:23;10.40;;;2.30;;
6850;SDS011;3464;42.728;23.296;2023-05-01T15:31:50;11.17;;;2.47;;